Time;durP1;ratioP1;P1;durP2;ratioP2;P2;SDS_P1;SDS_P2;PMS_P1;PMS_P2;Temp;Humidity;BMP_temperature;BMP_pressure;BME280_temperature;BME280_humidity;BME280_pressure;Samples;Min_cycle;Max_cycle;Signal;HPM_P1;HPM_P2
2021/12/10 00:01:57;;;;;;;7.23;2.37;;;;;;;3.00;78.93;99084.06;5042142;28;20473;-79
2021/12/10 00:04:29;;;;;;;10.27;3.25;;;;;;;3.00;79.06;99081.41;5034719;28;20414;-79
2021/12/10 00:06:58;;;;;;;7.63;3.20;;;;;;;2.99;78.89;99072.59;5035144;28;20399;-79
2021/12/10 00:09:33;;;;;;;6.80;2.55;;;;;;;2.98;79.11;99060.25;5033605;28;20422;-78
2021/12/10 00:12:20;;;;;;;10.48;2.92;;;;;;;3.00;78.67;99057.31;5035382;28;20419;-79
2021/12/10 00:14:46;;;;;;;10.47;3.03;;;;;;;3.00;78.44;99051.97;5037411;28;20445;-79
2021/12/10 00:17:13;;;;;;;7.50;2.42;;;;;;;2.99;78.58;99048.50;5032422;28;20431;-78
2021/12/10 00:19:56;;;;;;;9.10;2.70;;;;;;;2.98;78.70;99049.53;5040590;28;20760;-79
2021/12/10 00:22:39;;;;;;;8.40;2.45;;;;;;;2.98;78.46;99044.19;5038598;28;20407;-79
2021/12/10 00:25:08;;;;;;;10.80;2.45;;;;;;;2.96;78.65;99034.75;5037237;28;20482;-79
2021/12/10 00:27:33;;;;;;;9.68;2.13;;;;;;;2.92;78.45;99030.91;5052493;28;20409;-79
2021/12/10 00:30:08;;;;;;;9.65;3.08;;;;;;;2.92;78.79;99034.41;5035094;28;20407;-79
2021/12/10 00:32:40;;;;;;;7.70;2.50;;;;;;;2.91;78.64;99024.75;5037683;28;20420;-78
2021/12/10 00:35:15;;;;;;;10.88;3.38;;;;;;;2.86;78.08;99029.16;5034336;28;20399;-79
2021/12/10 00:37:40;;;;;;;30.05;8.75;;;;;;;2.87;78.50;99014.72;5054208;28;20401;-79
2021/12/10 00:40:10;;;;;;;29.50;7.83;;;;;;;2.85;78.29;99011.47;5035787;28;20416;-79
2021/12/10 00:42:36;;;;;;;17.23;5.35;;;;;;;2.80;78.45;98998.75;5038567;28;20836;-78
2021/12/10 00:45:05;;;;;;;12.23;3.80;;;;;;;2.77;78.56;98995.72;5035601;28;20471;-79
2021/12/10 00:47:31;;;;;;;28.90;9.63;;;;;;;2.73;78.17;98992.72;5035367;28;20417;-79
2021/12/10 00:49:57;;;;;;;9.45;2.50;;;;;;;2.68;78.49;98981.06;5039866;28;20401;-78
2021/12/10 00:52:23;;;;;;;12.60;4.10;;;;;;;2.63;78.98;98979.91;5031997;28;20950;-79
2021/12/10 00:54:49;;;;;;;8.03;2.93;;;;;;;2.61;78.98;98965.94;5037542;28;20403;-79
2021/12/10 00:57:15;;;;;;;10.07;3.20;;;;;;;2.58;79.26;98958.38;5041618;28;20749;-78
2021/12/10 00:59:42;;;;;;;9.40;2.90;;;;;;;2.56;79.43;98951.66;5040690;28;20772;-78
2021/12/10 01:02:12;;;;;;;8.07;2.55;;;;;;;2.54;79.75;98949.19;5033684;28;20409;-79
2021/12/10 01:04:40;;;;;;;11.18;4.30;;;;;;;2.52;79.71;98942.44;5037902;28;20908;-78
2021/12/10 01:07:10;;;;;;;15.43;6.67;;;;;;;2.45;80.08;98933.72;5033235;28;20489;-78
2021/12/10 01:09:39;;;;;;;9.68;3.03;;;;;;;2.36;80.64;98941.25;5033135;28;20403;-78
2021/12/10 01:12:09;;;;;;;10.35;3.45;;;;;;;2.32;80.94;98934.72;5038101;28;20423;-78
2021/12/10 01:26:07;;;;;;;7.50;3.05;;;;;;;2.23;81.17;98890.66;5034707;28;20444;-78
2021/12/10 01:28:34;;;;;;;8.82;2.88;;;;;;;2.19;81.13;98891.34;5033359;28;20403;-78
2021/12/10 01:31:00;;;;;;;6.00;2.45;;;;;;;2.18;80.83;98885.19;5032131;28;20488;-78
2021/12/10 01:33:25;;;;;;;6.23;2.47;;;;;;;2.18;81.19;98879.84;5035283;28;20407;-78
2021/12/10 01:35:54;;;;;;;10.53;2.77;;;;;;;2.21;80.78;98883.91;5037453;28;20394;-78
2021/12/10 01:38:21;;;;;;;8.52;2.80;;;;;;;2.21;80.99;98878.56;5031812;28;20453;-78
2021/12/10 01:40:49;;;;;;;9.18;2.92;;;;;;;2.22;80.68;98877.53;5031341;28;20898;-78
2021/12/10 01:43:23;;;;;;;7.32;2.70;;;;;;;2.21;80.67;98875.88;5037944;28;20402;-77
2021/12/10 01:45:54;;;;;;;9.27;2.72;;;;;;;2.19;81.01;98864.63;5034237;28;20826;-78
2021/12/10 01:48:27;;;;;;;7.85;3.78;;;;;;;2.15;80.92;98860.78;5039836;28;20400;-78
2021/12/10 01:50:56;;;;;;;7.43;2.30;;;;;;;2.12;80.96;98850.53;5039316;28;20902;-77
2021/12/10 01:53:26;;;;;;;8.95;2.60;;;;;;;2.10;81.31;98842.78;5032414;28;20407;-78
2021/12/10 01:55:55;;;;;;;4.72;2.38;;;;;;;2.11;81.19;98835.56;5037186;28;20395;-78
2021/12/10 01:58:24;;;;;;;5.77;2.53;;;;;;;2.07;80.96;98828.00;5039198;28;20399;-77
2021/12/10 02:00:58;;;;;;;8.60;2.75;;;;;;;2.02;81.17;98825.22;5043348;28;20403;-77
2021/12/10 02:03:24;;;;;;;7.43;2.53;;;;;;;2.00;81.22;98818.47;5040264;28;20508;-78
2021/12/10 02:05:50;;;;;;;9.38;3.15;;;;;;;1.95;81.27;98816.47;5037039;28;20411;-78
2021/12/10 02:08:15;;;;;;;8.43;3.03;;;;;;;1.89;81.40;98817.41;5042900;28;20448;-77
2021/12/10 02:10:41;;;;;;;9.63;2.50;;;;;;;1.76;81.14;98806.91;5043707;28;20985;-77
2021/12/10 02:13:06;;;;;;;4.70;2.30;;;;;;;1.61;82.26;98797.69;5039193;28;20947;-78
2021/12/10 02:15:32;;;;;;;6.30;2.33;;;;;;;1.60;81.99;98796.88;5040768;28;20461;-77
2021/12/10 02:18:00;;;;;;;6.43;2.07;;;;;;;1.63;81.68;98796.44;5046029;28;20489;-78
2021/12/10 02:20:46;;;;;;;4.65;1.98;;;;;;;1.68;81.75;98796.53;5041451;28;20498;-77
2021/12/10 02:23:11;;;;;;;6.18;2.15;;;;;;;1.70;81.47;98791.81;5040058;28;20439;-77
2021/12/10 02:25:37;;;;;;;10.07;2.97;;;;;;;1.69;81.55;98784.00;5059557;28;20401;-78
2021/12/10 02:28:07;;;;;;;6.90;1.93;;;;;;;1.69;81.58;98786.69;5044335;28;20427;-77
2021/12/10 02:30:33;;;;;;;6.55;2.47;;;;;;;1.71;81.53;98779.28;5034891;28;20965;-78
2021/12/10 02:32:59;;;;;;;6.57;2.50;;;;;;;1.74;81.21;98776.97;5042103;28;20491;-78
2021/12/10 02:35:26;;;;;;;5.82;2.17;;;;;;;1.75;81.83;98775.09;5037822;28;20399;-77
2021/12/10 02:37:52;;;;;;;8.27;3.00;;;;;;;1.76;81.52;98771.38;5046055;28;20406;-78
2021/12/10 02:40:20;;;;;;;7.30;2.75;;;;;;;1.74;81.86;98765.47;5043808;28;20416;-77
2021/12/10 02:42:48;;;;;;;5.15;2.38;;;;;;;1.78;81.56;98758.63;5045855;28;20458;-77
2021/12/10 02:45:17;;;;;;;8.35;2.70;;;;;;;1.72;81.25;98738.16;5045526;28;20396;-78
2021/12/10 02:47:44;;;;;;;9.50;3.42;;;;;;;1.58;82.70;98733.03;5031967;28;20445;-78
2021/12/10 02:50:14;;;;;;;8.95;3.30;;;;;;;1.65;82.36;98726.78;5063014;28;20445;-77
2021/12/10 02:52:40;;;;;;;15.32;7.57;;;;;;;1.65;81.97;98716.91;5035063;28;20418;-78
2021/12/10 02:55:10;;;;;;;14.33;7.83;;;;;;;1.47;82.70;98700.97;5045538;28;20882;-77
2021/12/10 02:57:38;;;;;;;11.00;6.38;;;;;;;1.41;83.54;98697.38;5045308;28;20454;-77
2021/12/10 03:00:07;;;;;;;11.98;4.60;;;;;;;1.39;82.96;98671.94;5034278;28;20422;-77
2021/12/10 03:02:32;;;;;;;10.82;4.63;;;;;;;1.28;83.37;98670.06;5037107;28;20401;-77
2021/12/10 03:04:58;;;;;;;9.25;3.60;;;;;;;1.43;83.50;98665.09;5043941;28;20403;-78
2021/12/10 03:07:23;;;;;;;7.53;2.83;;;;;;;1.49;82.34;98659.66;5039984;28;20400;-77
2021/12/10 03:09:53;;;;;;;6.00;2.27;;;;;;;1.49;81.74;98654.31;5034954;28;20403;-77
2021/12/10 03:12:20;;;;;;;6.40;2.45;;;;;;;1.39;82.13;98651.41;5037595;28;20426;-77
2021/12/10 03:14:48;;;;;;;9.98;2.50;;;;;;;1.36;81.76;98648.38;5054711;28;20413;-77
2021/12/10 03:17:18;;;;;;;7.47;2.28;;;;;;;1.37;81.71;98644.69;5040377;28;20481;-77
2021/12/10 03:19:44;;;;;;;5.45;2.50;;;;;;;1.27;81.81;98644.41;5042330;28;20401;-77
2021/12/10 03:22:10;;;;;;;5.50;2.33;;;;;;;1.19;82.83;98634.88;5033292;28;20479;-77
2021/12/10 03:24:36;;;;;;;6.03;2.90;;;;;;;1.28;82.49;98630.06;5054876;28;20405;-77
2021/12/10 03:27:04;;;;;;;9.30;2.78;;;;;;;1.27;82.90;98628.41;5048644;28;20402;-77
2021/12/10 03:29:32;;;;;;;7.10;2.80;;;;;;;1.25;83.03;98619.84;5052684;28;20401;-77
2021/12/10 03:32:02;;;;;;;7.07;2.47;;;;;;;1.16;83.23;98627.34;5034125;28;20902;-77
2021/12/10 03:34:27;;;;;;;7.60;2.28;;;;;;;1.18;83.12;98619.13;5035212;28;20448;-77
2021/12/10 03:36:53;;;;;;;7.10;2.20;;;;;;;1.20;82.52;98609.03;5055014;28;20857;-77
2021/12/10 03:39:23;;;;;;;6.97;2.58;;;;;;;1.19;82.79;98602.06;5034483;28;20409;-77
2021/12/10 03:41:50;;;;;;;7.55;2.50;;;;;;;1.18;82.54;98598.59;5052723;28;20498;-77
2021/12/10 03:44:15;;;;;;;10.20;2.55;;;;;;;1.22;82.44;98604.28;5033041;28;20419;-77
2021/12/10 03:46:42;;;;;;;7.03;1.97;;;;;;;1.34;82.19;98603.25;5034300;28;20445;-77
2021/12/10 03:49:08;;;;;;;4.22;2.28;;;;;;;1.34;81.74;98608.59;5035009;28;20413;-78
2021/12/10 03:51:35;;;;;;;6.77;1.80;;;;;;;1.38;82.06;98607.06;5039463;28;20415;-77
2021/12/10 03:54:01;;;;;;;5.10;2.00;;;;;;;1.45;81.74;98605.09;5037103;28;20403;-77
2021/12/10 03:56:29;;;;;;;4.55;2.10;;;;;;;1.50;81.51;98602.56;5032077;28;20395;-77
2021/12/10 03:58:58;;;;;;;4.80;1.90;;;;;;;1.53;81.31;98590.59;5039150;28;20900;-77
2021/12/10 04:01:28;;;;;;;8.77;2.00;;;;;;;1.49;81.40;98590.25;5036954;28;20421;-77
2021/12/10 04:03:55;;;;;;;5.90;1.50;;;;;;;1.46;81.63;98585.38;5036656;28;20478;-77
2021/12/10 04:06:22;;;;;;;7.80;2.22;;;;;;;1.39;81.33;98573.19;5054134;28;20391;-77
2021/12/10 04:08:47;;;;;;;5.00;1.30;;;;;;;1.40;81.66;98569.47;5036388;28;20398;-77
2021/12/10 04:11:15;;;;;;;5.03;1.90;;;;;;;1.37;81.31;98565.44;5032168;28;20431;-77
2021/12/10 04:13:43;;;;;;;9.23;2.15;;;;;;;1.16;82.09;98557.16;5041563;28;20470;-77
2021/12/10 04:16:09;;;;;;;6.13;1.65;;;;;;;1.20;82.26;98551.16;5040867;28;20537;-76
2021/12/10 04:18:36;;;;;;;3.95;1.30;;;;;;;1.14;81.90;98549.41;5033538;28;20481;-77
2021/12/10 04:21:05;;;;;;;5.35;1.90;;;;;;;1.24;81.96;98546.16;5033186;28;20403;-77
2021/12/10 04:23:30;;;;;;;5.93;1.73;;;;;;;1.31;80.95;98538.84;5047014;28;20483;-77
2021/12/10 04:25:56;;;;;;;4.65;1.60;;;;;;;1.24;81.17;98536.31;5039237;28;20798;-78
2021/12/10 04:28:22;;;;;;;7.63;1.37;;;;;;;1.19;81.50;98527.34;5033035;28;21035;-77
2021/12/10 04:30:49;;;;;;;7.20;1.77;;;;;;;1.26;80.95;98523.53;5032358;28;20876;-77
2021/12/10 04:33:17;;;;;;;5.13;1.83;;;;;;;1.29;80.95;98511.56;5045114;28;20732;-77
2021/12/10 04:35:48;;;;;;;4.75;1.10;;;;;;;1.25;81.23;98508.56;5046805;28;20407;-77
2021/12/10 04:38:16;;;;;;;5.53;1.70;;;;;;;1.28;80.80;98508.13;5034105;28;20445;-77
2021/12/10 04:40:45;;;;;;;5.03;1.35;;;;;;;1.27;80.44;98508.34;5045206;28;20480;-77
2021/12/10 04:43:10;;;;;;;6.65;1.30;;;;;;;1.12;81.27;98495.44;5042742;28;20445;-78
2021/12/10 04:45:36;;;;;;;3.10;1.50;;;;;;;1.15;81.35;98494.19;5046392;28;20517;-77
2021/12/10 04:48:02;;;;;;;5.77;1.50;;;;;;;1.17;80.98;98492.09;5032423;28;20443;-77
2021/12/10 04:50:29;;;;;;;6.40;1.67;;;;;;;1.19;81.17;98492.66;5040420;28;20405;-77
2021/12/10 04:52:55;;;;;;;3.38;1.80;;;;;;;1.24;80.42;98490.13;5040433;28;20405;-77
2021/12/10 04:55:22;;;;;;;5.70;1.42;;;;;;;1.25;80.53;98481.09;5034643;28;20399;-77
2021/12/10 04:57:47;;;;;;;6.53;1.70;;;;;;;1.14;80.78;98482.72;5031991;28;20406;-78
2021/12/10 05:00:20;;;;;;;2.58;1.30;;;;;;;1.13;81.35;98482.94;5030943;28;20761;-77
2021/12/10 05:02:45;;;;;;;3.05;2.00;;;;;;;1.19;80.54;98476.66;5039504;28;20501;-77
2021/12/10 05:05:11;;;;;;;3.80;1.83;;;;;;;1.14;80.52;98464.03;5035708;28;20449;-78
2021/12/10 05:07:37;;;;;;;6.60;1.50;;;;;;;0.99;81.28;98455.66;5031775;28;20431;-77
2021/12/10 05:10:06;;;;;;;3.17;1.70;;;;;;;1.02;81.22;98441.91;5032914;28;20494;-77
2021/12/10 05:12:31;;;;;;;10.27;1.73;;;;;;;1.05;80.88;98442.22;5042184;28;20478;-77
2021/12/10 05:15:00;;;;;;;6.10;1.83;;;;;;;1.07;80.75;98431.31;5036685;28;20407;-77
2021/12/10 05:17:31;;;;;;;3.78;1.17;;;;;;;1.00;80.58;98433.31;5034535;28;20406;-77
2021/12/10 05:19:59;;;;;;;7.55;1.55;;;;;;;0.98;81.18;98420.22;5033937;28;20419;-77
2021/12/10 05:22:25;;;;;;;4.47;1.40;;;;;;;1.01;80.81;98411.75;5039018;28;21005;-77
2021/12/10 05:24:50;;;;;;;7.97;1.77;;;;;;;1.00;81.04;98407.44;5035946;28;20457;-77
2021/12/10 05:27:15;;;;;;;8.43;2.07;;;;;;;0.93;81.02;98398.75;5032253;28;20410;-77
2021/12/10 05:29:44;;;;;;;3.17;1.40;;;;;;;1.00;80.91;98401.28;5049934;28;20413;-77
2021/12/10 05:32:21;;;;;;;3.97;1.17;;;;;;;1.03;80.81;98398.97;5036830;28;20416;-77
2021/12/10 05:34:47;;;;;;;3.47;1.10;;;;;;;1.02;80.63;98393.88;5054169;28;20854;-77
2021/12/10 05:37:13;;;;;;;10.43;1.70;;;;;;;1.01;80.18;98403.75;5033140;28;20414;-78
2021/12/10 05:39:38;;;;;;;4.60;1.20;;;;;;;0.95;80.57;98396.69;5040142;28;20405;-77
2021/12/10 05:42:05;;;;;;;3.63;1.50;;;;;;;0.93;80.60;98392.59;5029368;28;20881;-77
2021/12/10 05:44:31;;;;;;;6.18;1.48;;;;;;;0.95;80.75;98387.88;5043928;28;20405;-78
2021/12/10 05:46:58;;;;;;;6.10;1.48;;;;;;;0.97;80.46;98378.56;5035371;28;20395;-79
2021/12/10 05:49:23;;;;;;;4.07;1.67;;;;;;;0.99;80.36;98373.81;5054521;28;20949;-77
2021/12/10 05:51:49;;;;;;;5.50;1.50;;;;;;;1.02;80.61;98367.22;5035442;28;21834;-77
2021/12/10 05:54:14;;;;;;;6.83;1.73;;;;;;;1.07;80.28;98355.81;5038650;28;20407;-77
2021/12/10 05:56:39;;;;;;;5.90;1.50;;;;;;;1.01;80.45;98344.25;5036407;28;20924;-77
2021/12/10 05:59:05;;;;;;;4.40;1.47;;;;;;;1.09;80.20;98338.53;5041125;28;20437;-77
2021/12/10 06:01:31;;;;;;;4.13;1.40;;;;;;;1.05;80.03;98330.19;5050573;28;20476;-77
2021/12/10 06:03:57;;;;;;;5.23;1.63;;;;;;;0.98;80.32;98320.72;5057445;28;20425;-78
2021/12/10 06:06:26;;;;;;;5.47;1.83;;;;;;;0.90;80.27;98313.88;5042106;28;20803;-77
2021/12/10 06:08:52;;;;;;;5.90;1.35;;;;;;;0.96;80.08;98312.13;5039939;28;20401;-77
2021/12/10 06:11:18;;;;;;;47.05;22.15;;;;;;;0.98;80.36;98302.88;5039690;28;20426;-77
2021/12/10 06:13:45;;;;;;;5.10;1.88;;;;;;;0.95;80.15;98297.19;5042441;28;20403;-78
2021/12/10 06:16:11;;;;;;;2.80;2.03;;;;;;;1.05;79.85;98290.19;5040364;28;20399;-77
2021/12/10 06:18:36;;;;;;;4.83;2.33;;;;;;;1.11;79.80;98279.63;5034852;28;20405;-77
2021/12/10 06:21:02;;;;;;;7.27;2.03;;;;;;;1.24;79.08;98285.50;5038656;28;20411;-77
2021/12/10 06:23:27;;;;;;;4.20;2.47;;;;;;;1.17;79.48;98263.47;5043040;28;20407;-78
2021/12/10 06:25:52;;;;;;;6.57;2.00;;;;;;;1.22;78.83;98268.13;5040871;28;20410;-78
2021/12/10 06:28:18;;;;;;;6.07;2.83;;;;;;;1.21;78.86;98261.16;5044812;28;20481;-78
2021/12/10 06:30:45;;;;;;;5.70;2.30;;;;;;;1.19;78.86;98256.03;5041059;28;20430;-77
2021/12/10 06:33:13;;;;;;;3.60;2.22;;;;;;;1.10;79.09;98256.66;5041149;28;20431;-77
2021/12/10 06:35:42;;;;;;;7.55;2.05;;;;;;;1.24;78.21;98253.50;5034330;28;20905;-77
2021/12/10 06:38:09;;;;;;;4.63;1.87;;;;;;;1.32;77.31;98252.28;5036632;28;20916;-77
2021/12/10 06:40:36;;;;;;;3.80;2.85;;;;;;;1.37;77.35;98239.84;5039933;28;20782;-77
2021/12/10 06:43:04;;;;;;;3.92;2.05;;;;;;;1.31;78.03;98245.34;5055987;28;21598;-77
2021/12/10 06:45:30;;;;;;;6.75;2.55;;;;;;;1.35;78.09;98238.47;5056078;28;20492;-77
2021/12/10 06:47:58;;;;;;;2.72;2.47;;;;;;;1.37;77.94;98231.84;5040752;28;20462;-77
2021/12/10 06:50:27;;;;;;;4.45;2.53;;;;;;;1.38;78.21;98232.66;5040548;28;20396;-77
2021/12/10 06:52:54;;;;;;;5.82;2.35;;;;;;;1.36;78.80;98240.88;5036777;28;20812;-77
2021/12/10 06:55:19;;;;;;;6.60;2.70;;;;;;;1.33;78.83;98232.56;5045060;28;20871;-77
2021/12/10 06:57:45;;;;;;;8.30;4.43;;;;;;;1.34;79.26;98227.00;5065159;28;20502;-77
2021/12/10 07:00:18;;;;;;;7.05;3.40;;;;;;;1.26;79.15;98226.56;5035907;28;20403;-76
2021/12/10 07:02:44;;;;;;;6.45;2.83;;;;;;;1.15;79.13;98222.09;5040019;28;20407;-77
2021/12/10 07:05:10;;;;;;;6.93;3.20;;;;;;;1.18;79.41;98221.63;5034162;28;20457;-78
2021/12/10 07:07:38;;;;;;;8.70;3.87;;;;;;;1.22;79.07;98222.75;5039611;28;20882;-77
2021/12/10 07:10:05;;;;;;;5.53;3.17;;;;;;;1.25;79.21;98217.72;5042995;28;20423;-77
2021/12/10 07:12:30;;;;;;;4.73;3.07;;;;;;;1.29;79.12;98218.06;5040021;28;20606;-77
2021/12/10 07:15:00;;;;;;;5.53;3.47;;;;;;;1.31;78.92;98219.47;5044778;28;20494;-77
2021/12/10 07:17:26;;;;;;;7.90;4.03;;;;;;;1.33;78.64;98211.22;5038080;28;20882;-76
2021/12/10 07:19:51;;;;;;;11.73;4.47;;;;;;;1.35;79.04;98195.78;5038353;28;20437;-78
2021/12/10 07:22:17;;;;;;;11.60;3.70;;;;;;;1.37;78.99;98210.50;5034544;28;20450;-77
2021/12/10 07:24:42;;;;;;;6.80;3.80;;;;;;;1.39;79.12;98202.25;5036226;28;20423;-77
2021/12/10 07:27:11;;;;;;;7.17;4.17;;;;;;;1.39;79.63;98204.91;5036329;28;20406;-78
2021/12/10 07:29:37;;;;;;;9.85;4.88;;;;;;;1.40;79.99;98204.69;5036275;28;20407;-77
2021/12/10 07:32:04;;;;;;;14.32;7.85;;;;;;;1.43;79.22;98206.06;5039267;28;20421;-77
2021/12/10 07:34:29;;;;;;;8.63;4.88;;;;;;;1.47;79.30;98204.53;5040602;28;20472;-77
2021/12/10 07:36:54;;;;;;;8.27;4.37;;;;;;;1.52;78.70;98200.06;5033571;28;20859;-77
2021/12/10 07:39:19;;;;;;;8.37;4.70;;;;;;;1.49;79.29;98197.06;5043629;28;20770;-76
2021/12/10 07:41:45;;;;;;;12.00;5.90;;;;;;;1.47;79.70;98200.00;5039722;28;20458;-77
2021/12/10 07:44:11;;;;;;;15.00;8.20;;;;;;;1.49;79.99;98197.88;5043600;28;20421;-77
2021/12/10 07:46:37;;;;;;;10.10;7.05;;;;;;;1.54;79.75;98203.31;5043396;28;20402;-76
2021/12/10 07:49:04;;;;;;;9.47;5.93;;;;;;;1.58;80.02;98204.44;5035822;28;20411;-77
2021/12/10 07:51:31;;;;;;;13.90;7.30;;;;;;;1.65;79.57;98211.50;5043537;28;20459;-77
2021/12/10 07:53:59;;;;;;;12.63;7.40;;;;;;;1.73;79.10;98201.22;5036492;28;20444;-77
2021/12/10 07:56:27;;;;;;;17.05;8.07;;;;;;;1.82;79.22;98206.94;5046926;28;20395;-77
2021/12/10 07:58:53;;;;;;;12.30;7.50;;;;;;;1.91;78.88;98200.97;5045027;28;20440;-76
2021/12/10 08:01:24;;;;;;;14.52;7.65;;;;;;;1.97;78.78;98204.53;5045377;28;20402;-77
2021/12/10 08:03:50;;;;;;;26.25;18.08;;;;;;;2.02;78.35;98210.75;5034124;28;20391;-77
2021/12/10 08:06:18;;;;;;;28.17;21.48;;;;;;;2.02;78.61;98215.28;5034555;28;20430;-77
2021/12/10 08:08:43;;;;;;;23.02;17.08;;;;;;;2.03;78.78;98212.38;5036986;28;20412;-76
2021/12/10 08:11:09;;;;;;;21.38;13.80;;;;;;;2.13;78.87;98214.38;5052741;28;20419;-76
2021/12/10 08:13:34;;;;;;;19.83;13.35;;;;;;;2.12;78.50;98209.28;5037458;28;20810;-77
2021/12/10 08:16:00;;;;;;;19.33;14.00;;;;;;;2.18;78.18;98218.97;5038397;28;20792;-77
2021/12/10 08:18:26;;;;;;;5.90;4.90;;;;;;;2.21;75.46;98216.63;5037989;28;20435;-77
2021/12/10 08:20:51;;;;;;;12.30;5.78;;;;;;;2.33;74.28;98214.69;5039265;28;20419;-77
2021/12/10 08:23:19;;;;;;;5.60;3.88;;;;;;;2.41;74.33;98210.75;5034449;28;20419;-77
2021/12/10 08:25:44;;;;;;;6.88;4.95;;;;;;;2.42;73.07;98220.41;5047345;28;20443;-77
2021/12/10 08:28:10;;;;;;;6.72;3.90;;;;;;;2.44;72.98;98218.28;5039055;28;20457;-77
2021/12/10 08:30:38;;;;;;;4.37;3.17;;;;;;;2.49;72.84;98208.47;5039524;28;20439;-77
2021/12/10 08:33:10;;;;;;;16.70;6.10;;;;;;;2.47;72.42;98210.56;5032212;28;20421;-76
2021/12/10 08:35:35;;;;;;;5.72;3.53;;;;;;;2.59;71.61;98213.16;5033015;28;20467;-77
2021/12/10 08:38:02;;;;;;;4.30;3.27;;;;;;;2.69;72.11;98210.59;5033639;28;20401;-78
2021/12/10 08:40:31;;;;;;;6.07;2.80;;;;;;;2.75;71.27;98209.59;5037968;28;20900;-77
2021/12/10 08:42:57;;;;;;;5.95;2.88;;;;;;;2.75;70.97;98208.78;5030526;28;21090;-77
2021/12/10 08:45:24;;;;;;;7.25;3.50;;;;;;;2.71;72.34;98210.34;5044780;28;20407;-77
2021/12/10 08:47:51;;;;;;;8.85;3.60;;;;;;;2.70;73.25;98206.84;5047507;28;20407;-77
2021/12/10 08:50:22;;;;;;;7.45;3.22;;;;;;;2.66;72.82;98215.66;5038912;28;20420;-77
2021/12/10 08:52:52;;;;;;;10.32;3.65;;;;;;;2.61;73.28;98216.38;5034783;28;20443;-77
2021/12/10 08:55:17;;;;;;;56.80;10.10;;;;;;;2.62;73.90;98218.00;5035149;28;20452;-77
2021/12/10 08:57:44;;;;;;;17.73;5.03;;;;;;;2.62;74.49;98209.97;5029068;28;20886;-77
2021/12/10 09:00:11;;;;;;;11.00;4.00;;;;;;;2.56;74.97;98216.31;5032303;28;20408;-77
2021/12/10 09:02:38;;;;;;;6.90;3.50;;;;;;;2.48;76.18;98212.22;5043190;28;20441;-77
2021/12/10 09:05:07;;;;;;;6.65;4.15;;;;;;;2.54;76.38;98215.75;5050648;28;20395;-77
2021/12/10 09:07:32;;;;;;;10.50;3.80;;;;;;;2.46;76.96;98203.63;5044898;28;20906;-77
2021/12/10 09:09:58;;;;;;;9.63;4.23;;;;;;;2.47;76.80;98210.56;5053559;28;20429;-77
2021/12/10 09:12:26;;;;;;;7.97;4.63;;;;;;;2.49;77.04;98203.13;5031394;28;20514;-77
2021/12/10 09:14:54;;;;;;;7.60;3.67;;;;;;;2.51;77.23;98206.34;5032668;28;20411;-77
2021/12/10 09:17:24;;;;;;;10.25;4.78;;;;;;;2.51;77.39;98184.97;5034509;28;20482;-77
2021/12/10 09:19:52;;;;;;;14.03;5.60;;;;;;;2.51;77.96;98184.97;5038825;28;20925;-77
2021/12/10 09:22:18;;;;;;;8.37;3.93;;;;;;;2.47;77.90;98181.16;5034659;28;20419;-77
2021/12/10 09:24:44;;;;;;;9.90;4.40;;;;;;;2.56;78.01;98179.72;5049315;28;20414;-77
2021/12/10 09:27:11;;;;;;;8.98;3.70;;;;;;;2.57;78.04;98175.13;5031860;28;20403;-77
2021/12/10 09:29:42;;;;;;;11.02;3.20;;;;;;;2.56;77.93;98178.91;5032508;28;20478;-77
2021/12/10 09:32:10;;;;;;;7.68;3.60;;;;;;;2.56;78.10;98182.38;5039509;28;20909;-77
2021/12/10 09:34:36;;;;;;;6.63;3.55;;;;;;;2.58;78.39;98174.91;5030395;28;20406;-77
2021/12/10 09:37:02;;;;;;;7.90;3.53;;;;;;;2.54;78.53;98175.63;5038444;28;20477;-78
2021/12/10 09:39:30;;;;;;;10.07;3.88;;;;;;;2.51;78.62;98178.81;5037726;28;20489;-77
2021/12/10 09:41:56;;;;;;;7.20;3.00;;;;;;;2.56;78.21;98171.69;5033219;28;20419;-77
2021/12/10 09:44:22;;;;;;;8.73;3.60;;;;;;;2.67;78.34;98172.59;5034803;28;20411;-77
2021/12/10 09:46:48;;;;;;;8.30;4.50;;;;;;;2.67;78.22;98172.59;5032325;28;20406;-77
2021/12/10 09:49:14;;;;;;;9.20;3.83;;;;;;;2.70;78.32;98177.44;5039066;28;20404;-77
2021/12/10 09:51:46;;;;;;;7.32;3.70;;;;;;;2.62;78.61;98169.88;5032814;28;20513;-77
2021/12/10 09:54:16;;;;;;;7.38;3.65;;;;;;;2.67;79.17;98166.47;5034674;28;20797;-77
2021/12/10 09:56:49;;;;;;;6.63;3.42;;;;;;;2.74;78.92;98164.38;5038081;28;20460;-77
2021/12/10 09:59:16;;;;;;;10.55;4.57;;;;;;;2.76;79.04;98155.06;5030298;28;20399;-77
2021/12/10 10:01:47;;;;;;;11.63;5.05;;;;;;;2.87;78.63;98145.25;5039097;28;20897;-76
2021/12/10 10:04:17;;;;;;;7.97;4.43;;;;;;;2.90;78.73;98148.25;5048383;28;20440;-77
2021/12/10 10:06:51;;;;;;;8.85;5.45;;;;;;;2.98;78.79;98136.31;5043451;28;20753;-77
2021/12/10 10:09:19;;;;;;;9.33;6.33;;;;;;;3.04;78.46;98136.09;5039163;28;20776;-77
2021/12/10 10:11:47;;;;;;;12.00;6.50;;;;;;;2.97;78.85;98140.84;5033952;28;20421;-78
2021/12/10 10:14:13;;;;;;;9.07;4.90;;;;;;;2.97;79.22;98130.13;5036866;28;20886;-78
2021/12/10 10:16:43;;;;;;;14.00;6.10;;;;;;;3.03;79.59;98128.34;5031457;28;20425;-78
2021/12/10 10:19:09;;;;;;;9.98;5.63;;;;;;;3.11;79.06;98122.50;5041422;28;20421;-77
2021/12/10 10:21:42;;;;;;;9.88;5.00;;;;;;;3.26;78.78;98119.97;5039555;28;20415;-77
2021/12/10 10:24:09;;;;;;;10.27;4.80;;;;;;;3.30;78.69;98112.22;5033736;28;20500;-77
2021/12/10 10:26:40;;;;;;;12.25;5.30;;;;;;;3.35;78.49;98112.28;5035782;28;20411;-78
2021/12/10 10:29:13;;;;;;;11.00;5.93;;;;;;;3.40;78.84;98104.28;5040832;28;20402;-77
2021/12/10 10:32:09;;;;;;;22.25;11.07;;;;;;;3.42;78.82;98112.88;5034469;28;20770;-77
2021/12/10 10:34:39;;;;;;;18.52;10.52;;;;;;;3.41;78.89;98090.66;5048797;28;20437;-78
2021/12/10 10:37:08;;;;;;;12.45;7.35;;;;;;;3.39;79.45;98100.78;5037318;28;20921;-77
2021/12/10 10:39:36;;;;;;;10.18;4.93;;;;;;;3.36;80.16;98097.84;5034040;28;20542;-78
2021/12/10 10:42:04;;;;;;;9.38;4.38;;;;;;;3.47;79.49;98092.31;5050879;28;20412;-78
2021/12/10 10:44:30;;;;;;;10.77;4.80;;;;;;;3.39;80.09;98084.72;5037584;28;20494;-78
2021/12/10 10:46:59;;;;;;;7.63;5.03;;;;;;;3.56;79.93;98077.38;5037840;28;20486;-78
2021/12/10 10:49:45;;;;;;;9.63;5.23;;;;;;;3.74;78.82;98080.69;5040839;28;20422;-78
2021/12/10 10:52:28;;;;;;;9.77;5.03;;;;;;;3.67;78.99;98083.59;5036422;28;20426;-78
2021/12/10 10:54:58;;;;;;;8.68;4.75;;;;;;;3.66;78.99;98074.75;5035365;28;20403;-78
2021/12/10 10:57:27;;;;;;;10.95;4.65;;;;;;;3.66;79.15;98064.06;5033162;28;20407;-78
2021/12/10 10:59:58;;;;;;;7.57;4.57;;;;;;;3.73;79.42;98065.69;5057505;28;20428;-78
2021/12/10 11:02:37;;;;;;;7.67;5.10;;;;;;;3.73;79.34;98065.69;5038801;28;20415;-78
2021/12/10 11:05:10;;;;;;;11.20;6.78;;;;;;;3.75;79.32;98066.25;5033200;28;20882;-78
2021/12/10 11:07:49;;;;;;;11.55;5.70;;;;;;;3.79;79.29;98067.34;5034286;28;20882;-77
2021/12/10 11:10:28;;;;;;;9.55;5.15;;;;;;;3.84;78.51;98081.56;5039862;28;20858;-78
2021/12/10 11:13:07;;;;;;;10.70;5.40;;;;;;;3.86;78.63;98067.91;5033690;28;20505;-78
2021/12/10 11:15:32;;;;;;;9.75;5.13;;;;;;;3.85;79.29;98061.78;5043071;28;20400;-78
2021/12/10 11:17:58;;;;;;;9.48;5.50;;;;;;;3.86;78.96;98068.72;5033482;28;20911;-78
2021/12/10 11:20:33;;;;;;;10.17;5.60;;;;;;;3.82;79.36;98067.63;5054513;28;20403;-78
2021/12/10 11:23:03;;;;;;;8.35;4.85;;;;;;;3.68;79.47;98066.47;5037486;28;20410;-78
2021/12/10 11:25:37;;;;;;;4.65;3.63;;;;;;;3.69;79.71;98065.41;5039138;28;20411;-78
2021/12/10 11:28:14;;;;;;;7.78;3.47;;;;;;;3.59;79.29;98068.00;5036916;28;20403;-77
2021/12/10 11:30:45;;;;;;;7.43;4.20;;;;;;;3.58;79.47;98061.88;5032613;28;20398;-78
2021/12/10 11:33:13;;;;;;;7.85;4.63;;;;;;;3.65;79.63;98065.09;5035132;28;20457;-78
2021/12/10 11:35:46;;;;;;;3.40;1.93;;;;;;;3.65;78.75;98061.66;5037041;28;20398;-78
2021/12/10 11:38:25;;;;;;;4.50;1.80;;;;;;;3.69;78.37;98059.25;5034611;28;20439;-78
2021/12/10 11:40:56;;;;;;;6.05;3.83;;;;;;;3.70;78.71;98061.66;5039982;28;20416;-78
2021/12/10 11:48:54;;;;;;;3.22;1.90;;;;;;;3.85;79.12;98050.25;5041290;28;20489;-79
2021/12/10 11:51:29;;;;;;;9.07;2.30;;;;;;;3.85;79.42;98047.56;5040035;28;20421;-79
2021/12/10 11:54:14;;;;;;;1.90;1.60;;;;;;;3.86;79.53;98049.97;5033003;28;20395;-79
2021/12/10 11:56:50;;;;;;;11.73;5.90;;;;;;;3.82;79.90;98054.22;5035997;28;20537;-78
2021/12/10 11:59:40;;;;;;;8.27;4.40;;;;;;;3.75;80.16;98055.53;5040565;28;21012;-77
2021/12/10 12:02:10;;;;;;;8.68;4.05;;;;;;;3.66;80.61;98050.66;5026319;28;20993;-79